Asherville, Missouri
Current Conditions -  °F | °C
As of 5:53 AM on Sunday 23 Nov 2014 (Local Time) from KPOF Reporting Station
Overcast Overcast  
Wind Chill: 12°   Ceiling: 1900
Heat Index: 12°   Visibility: 10mi
Dew Point:   Wind: 8mph
Humidity: 83%   Direction: 140°SE
Pressure: 29.75"   Gusts: NA
Location:  36.9506°N, 90.1582°W
Report Text: KPOF 231153Z AUTO 14007KT 10SM OVC019 12/09 A2975 RMK AO2 SLP075 70002 T01220094 10128 20100 56019
Loading
Personal Weather Stations






























Interactive Weather Map New forecast layout! Learn more

10-Day Weather Forecast

Advertisements
Track Severe Weather on mobile